createdAt,value
2018-12-17T00:03:49.132Z,7.57
2018-12-17T00:06:17.478Z,7.90
2018-12-17T00:08:46.066Z,8.77
2018-12-17T00:11:14.755Z,9.07
2018-12-17T00:13:43.256Z,8.63
2018-12-17T00:16:11.574Z,8.73
2018-12-17T00:18:39.985Z,8.60
2018-12-17T00:21:08.157Z,10.00
2018-12-17T00:26:27.079Z,13.40
2018-12-17T00:28:55.271Z,13.17
2018-12-17T00:31:23.507Z,12.40
2018-12-17T00:33:51.778Z,11.83
2018-12-17T00:36:20.004Z,11.80
2018-12-17T00:38:48.227Z,11.80
2018-12-17T00:41:16.427Z,10.50
2018-12-17T00:43:45.441Z,9.33
2018-12-17T00:46:13.785Z,9.60
2018-12-17T00:48:42.170Z,9.67
2018-12-17T00:51:10.371Z,9.70
2018-12-17T00:53:39.140Z,8.97
2018-12-17T00:56:07.583Z,8.63
2018-12-17T00:58:35.968Z,7.87
2018-12-17T01:01:04.343Z,9.40
2018-12-17T01:06:34.023Z,8.27
2018-12-17T01:09:02.210Z,7.47
2018-12-17T01:11:30.426Z,8.77
2018-12-17T01:13:58.627Z,9.23
2018-12-17T01:16:27.101Z,8.93
2018-12-17T01:18:55.383Z,9.63
2018-12-17T01:21:24.077Z,9.27
2018-12-17T01:23:52.712Z,10.70
2018-12-17T01:26:21.751Z,10.90
2018-12-17T01:28:50.448Z,9.77
2018-12-17T01:31:18.887Z,10.10
2018-12-17T01:33:47.110Z,9.77
2018-12-17T01:36:15.307Z,10.30
2018-12-17T01:38:44.756Z,10.80
2018-12-17T01:41:12.959Z,10.30
2018-12-17T01:43:41.174Z,9.33
2018-12-17T01:46:09.387Z,9.67
2018-12-17T01:48:37.659Z,11.43
2018-12-17T01:51:05.952Z,11.30
2018-12-17T01:53:34.329Z,9.40
2018-12-17T01:56:02.545Z,10.03
2018-12-17T01:58:30.752Z,8.70
2018-12-17T02:00:59.451Z,9.97
2018-12-17T02:06:18.382Z,8.60
2018-12-17T02:08:46.857Z,8.43
2018-12-17T02:11:15.058Z,9.20
2018-12-17T02:13:43.263Z,9.20
2018-12-17T02:16:11.478Z,8.43
2018-12-17T02:18:39.775Z,8.07
2018-12-17T02:21:07.982Z,8.17
2018-12-17T02:23:36.175Z,8.63
2018-12-17T02:26:04.395Z,7.47
2018-12-17T02:28:36.166Z,8.27
2018-12-17T02:31:02.879Z,7.93
2018-12-17T02:33:31.329Z,8.10
2018-12-17T02:35:59.623Z,8.57
2018-12-17T02:38:27.949Z,9.23
2018-12-17T02:40:56.158Z,8.77
2018-12-17T02:43:24.614Z,8.90
2018-12-17T02:51:37.715Z,8.43
2018-12-17T02:54:05.978Z,8.67
2018-12-17T02:56:34.258Z,9.20
2018-12-17T02:59:02.468Z,8.77
2018-12-17T03:01:30.659Z,9.00
2018-12-17T03:03:58.960Z,7.30
2018-12-17T03:06:27.224Z,9.40
2018-12-17T03:08:55.419Z,9.07
2018-12-17T03:14:13.999Z,8.77
2018-12-17T03:16:42.198Z,8.60
2018-12-17T03:19:10.409Z,7.87
2018-12-17T03:21:38.603Z,8.53
2018-12-17T03:24:07.078Z,8.07
2018-12-17T03:26:35.367Z,8.50
2018-12-17T03:29:03.579Z,8.07
2018-12-17T03:31:31.997Z,8.20
2018-12-17T03:34:00.270Z,7.60
2018-12-17T03:36:28.460Z,8.03
2018-12-17T03:38:56.668Z,7.93
2018-12-17T03:41:24.923Z,8.87
2018-12-17T03:43:53.123Z,9.00
2018-12-17T03:46:21.365Z,9.03
2018-12-17T03:48:49.548Z,8.33
2018-12-17T03:51:18.120Z,8.57
2018-12-17T03:53:46.296Z,9.70
2018-12-17T03:56:14.484Z,8.70
2018-12-17T03:58:42.783Z,8.13
2018-12-17T04:01:10.980Z,8.97
2018-12-17T04:03:39.256Z,8.70
2018-12-17T04:06:07.522Z,9.57
2018-12-17T04:08:35.862Z,9.30
2018-12-17T04:11:04.382Z,9.40
2018-12-17T04:13:32.674Z,8.73
2018-12-17T04:16:00.904Z,9.77
2018-12-17T04:18:29.289Z,9.83
2018-12-17T04:20:57.471Z,8.77
2018-12-17T04:23:25.681Z,9.80
2018-12-17T04:25:53.872Z,10.47
2018-12-17T04:28:22.182Z,10.73
2018-12-17T04:30:50.680Z,12.10
2018-12-17T04:33:18.879Z,11.40
2018-12-17T04:35:47.068Z,12.57
2018-12-17T04:38:15.299Z,12.70
2018-12-17T04:40:43.486Z,12.40
2018-12-17T04:43:11.704Z,14.07
2018-12-17T04:45:40.002Z,11.60
2018-12-17T04:48:08.381Z,12.30
2018-12-17T04:50:36.555Z,12.60
2018-12-17T04:53:04.848Z,11.70
2018-12-17T04:55:33.124Z,11.00
2018-12-17T04:58:01.507Z,12.57
2018-12-17T05:00:29.789Z,11.53
2018-12-17T05:02:58.062Z,10.53
2018-12-17T05:05:26.473Z,12.33
2018-12-17T05:07:54.644Z,11.23
2018-12-17T05:10:22.882Z,13.23
2018-12-17T05:12:51.099Z,13.57
2018-12-17T05:15:19.333Z,14.23
2018-12-17T05:20:38.007Z,13.43
2018-12-17T05:23:06.276Z,13.00
2018-12-17T05:25:34.493Z,12.20
2018-12-17T05:28:02.751Z,13.47
2018-12-17T05:30:31.052Z,11.80
2018-12-17T05:32:59.931Z,14.13
2018-12-17T05:35:28.185Z,12.67
2018-12-17T05:37:56.471Z,12.37
2018-12-17T05:43:15.475Z,13.70
2018-12-17T05:45:43.676Z,15.00
2018-12-17T05:48:11.913Z,12.53
2018-12-17T05:50:40.148Z,14.07
2018-12-17T05:53:08.505Z,13.80
2018-12-17T05:55:37.020Z,14.73
2018-12-17T05:58:05.242Z,14.27
2018-12-17T06:00:33.459Z,13.50
2018-12-17T06:03:01.671Z,13.37
2018-12-17T06:05:29.970Z,14.47
2018-12-17T06:07:58.198Z,13.33
2018-12-17T06:10:26.418Z,15.60
2018-12-17T06:12:54.619Z,15.07
2018-12-17T06:15:22.826Z,16.17
2018-12-17T06:17:51.243Z,16.47
2018-12-17T06:20:19.569Z,16.00
2018-12-17T06:25:38.400Z,15.10
2018-12-17T06:28:06.604Z,15.93
2018-12-17T06:30:34.811Z,16.60
2018-12-17T06:33:03.132Z,16.33
2018-12-17T06:35:31.459Z,17.87
2018-12-17T06:37:59.961Z,15.80
2018-12-17T06:40:28.423Z,14.07
2018-12-17T06:42:56.738Z,15.07
2018-12-17T06:45:25.034Z,17.50
2018-12-17T06:47:53.343Z,17.10
2018-12-17T06:50:21.559Z,17.80
2018-12-17T06:52:49.815Z,15.70
2018-12-17T06:55:18.037Z,15.43
2018-12-17T06:57:46.335Z,15.40
2018-12-17T07:00:15.007Z,14.37
2018-12-17T07:02:43.375Z,14.50
2018-12-17T07:05:11.638Z,16.40
2018-12-17T07:07:39.915Z,15.53
2018-12-17T07:10:08.348Z,14.97
2018-12-17T07:12:36.605Z,14.30
2018-12-17T07:15:05.863Z,13.67
2018-12-17T07:17:34.280Z,14.37
2018-12-17T07:20:02.555Z,11.33
2018-12-17T07:25:21.849Z,14.57
2018-12-17T07:27:50.067Z,12.80
2018-12-17T07:30:18.283Z,11.83
2018-12-17T07:32:46.796Z,12.50
2018-12-17T07:35:15.046Z,11.20
2018-12-17T07:37:43.559Z,12.37
2018-12-17T07:40:11.764Z,11.33
2018-12-17T07:42:40.018Z,11.50
2018-12-17T07:45:08.690Z,14.10
2018-12-17T07:47:36.850Z,11.67
2018-12-17T07:50:06.330Z,11.83
2018-12-17T07:52:34.957Z,11.13
2018-12-17T07:55:03.703Z,11.30
2018-12-17T07:57:32.163Z,9.07
2018-12-17T08:00:00.391Z,9.53
2018-12-17T08:05:19.207Z,8.57
2018-12-17T08:07:47.476Z,8.80
2018-12-17T08:10:15.761Z,9.60
2018-12-17T08:12:44.087Z,9.00
2018-12-17T08:15:12.317Z,11.30
2018-12-17T08:17:40.656Z,8.47
2018-12-17T08:20:09.548Z,8.90
2018-12-17T08:22:38.279Z,8.57
2018-12-17T08:25:06.792Z,9.03
2018-12-17T08:27:35.000Z,9.30
2018-12-17T08:30:04.126Z,9.90
2018-12-17T08:32:32.773Z,11.20
2018-12-17T08:35:01.051Z,10.17
2018-12-17T08:37:29.289Z,10.50
2018-12-17T08:39:57.603Z,9.63
2018-12-17T08:42:25.836Z,10.30
2018-12-17T08:44:54.079Z,8.63
2018-12-17T08:47:22.308Z,8.80
2018-12-17T08:49:50.544Z,8.07
2018-12-17T08:52:18.900Z,8.17
2018-12-17T08:54:47.169Z,8.20
2018-12-17T08:57:15.383Z,7.33
2018-12-17T08:59:43.597Z,7.77
2018-12-17T09:07:52.999Z,9.30
2018-12-17T09:10:21.363Z,8.10
2018-12-17T09:12:49.561Z,8.40
2018-12-17T09:15:17.827Z,8.20
2018-12-17T09:17:46.151Z,7.40
2018-12-17T09:20:14.499Z,8.80
2018-12-17T09:22:42.847Z,9.70
2018-12-17T09:25:11.675Z,8.83
2018-12-17T09:27:40.063Z,7.60
2018-12-17T09:30:08.922Z,8.00
2018-12-17T09:32:37.286Z,8.63
2018-12-17T09:35:05.895Z,9.07
2018-12-17T09:37:34.095Z,8.13
2018-12-17T09:40:02.331Z,8.10
2018-12-17T09:42:30.696Z,7.77
2018-12-17T09:44:58.847Z,8.20
2018-12-17T09:47:27.584Z,8.63
2018-12-17T09:49:55.779Z,9.03
2018-12-17T09:52:24.108Z,7.80
2018-12-17T09:54:52.287Z,9.13
2018-12-17T10:03:01.561Z,6.80
2018-12-17T10:05:29.975Z,6.10
2018-12-17T10:07:58.378Z,8.00
2018-12-17T10:10:27.231Z,8.17
2018-12-17T10:12:55.479Z,6.50
2018-12-17T10:15:23.670Z,6.60
2018-12-17T10:17:51.864Z,7.00
2018-12-17T10:20:20.139Z,5.90
2018-12-17T10:22:58.110Z,6.13
2018-12-17T10:25:26.285Z,6.10
2018-12-17T10:27:54.555Z,6.13
2018-12-17T10:30:22.771Z,5.57
2018-12-17T10:32:51.025Z,5.93
2018-12-17T10:35:19.420Z,5.90
2018-12-17T10:37:47.660Z,5.80
2018-12-17T10:40:15.996Z,7.07
2018-12-17T10:42:44.216Z,5.83
2018-12-17T10:45:12.407Z,6.63
2018-12-17T10:47:40.667Z,7.87
2018-12-17T10:50:09.435Z,6.53
2018-12-17T10:52:37.705Z,6.47
2018-12-17T10:55:06.214Z,6.90
2018-12-17T10:57:34.397Z,7.30
2018-12-17T11:00:02.750Z,6.80
2018-12-17T11:02:34.279Z,6.50
2018-12-17T11:05:09.805Z,6.23
2018-12-17T11:07:38.227Z,6.87
2018-12-17T11:10:07.687Z,7.53
2018-12-17T11:12:35.924Z,7.73
2018-12-17T11:15:05.292Z,7.53
2018-12-17T11:17:33.706Z,8.20
2018-12-17T11:25:43.027Z,7.60
2018-12-17T11:28:11.283Z,9.73
2018-12-17T11:30:46.303Z,8.30
2018-12-17T11:33:09.983Z,8.00
2018-12-17T11:35:38.259Z,8.07
2018-12-17T11:38:06.510Z,8.60
2018-12-17T11:40:34.715Z,9.10
2018-12-17T11:43:02.986Z,8.40
2018-12-17T11:48:21.891Z,9.67
2018-12-17T11:50:50.206Z,7.97
2018-12-17T11:53:18.527Z,8.33
2018-12-17T11:55:46.751Z,8.20
2018-12-17T11:58:15.568Z,9.50
2018-12-17T12:01:15.667Z,9.00
2018-12-17T12:03:44.800Z,8.27
2018-12-17T12:06:14.255Z,8.50
2018-12-17T12:11:33.737Z,7.63
2018-12-17T12:14:01.961Z,8.17
2018-12-17T12:16:30.192Z,9.00
2018-12-17T12:18:58.396Z,7.37
2018-12-17T12:21:26.633Z,9.40
2018-12-17T12:23:54.923Z,8.30
2018-12-17T12:26:23.185Z,7.83
2018-12-17T12:28:51.486Z,7.67
2018-12-17T12:31:19.755Z,7.83
2018-12-17T12:33:48.240Z,7.87
2018-12-17T12:36:16.826Z,7.90
2018-12-17T12:38:45.055Z,6.30
2018-12-17T12:41:13.263Z,7.13
2018-12-17T12:43:41.481Z,7.17
2018-12-17T12:46:10.046Z,5.70
2018-12-17T12:48:38.429Z,5.70
2018-12-17T12:51:06.674Z,6.10
2018-12-17T12:53:35.114Z,5.90
2018-12-17T12:56:03.771Z,5.77
2018-12-17T12:58:32.131Z,5.27
2018-12-17T13:01:07.415Z,5.90
2018-12-17T13:03:30.870Z,5.60
2018-12-17T13:05:59.251Z,5.60
2018-12-17T13:08:27.789Z,5.00
2018-12-17T13:10:56.060Z,6.00
2018-12-17T13:13:24.375Z,5.50
2018-12-17T13:15:52.932Z,5.57
2018-12-17T13:18:21.184Z,4.80
2018-12-17T13:20:49.398Z,5.40
2018-12-17T13:23:17.745Z,5.23
2018-12-17T13:25:48.327Z,4.80
2018-12-17T13:28:16.555Z,5.77
2018-12-17T13:30:44.804Z,5.53
2018-12-17T13:33:13.003Z,5.07
2018-12-17T13:35:41.622Z,6.87
2018-12-17T13:38:09.852Z,5.93
2018-12-17T13:40:38.435Z,5.30
2018-12-17T13:43:06.688Z,5.90
2018-12-17T13:45:35.146Z,6.70
2018-12-17T13:48:03.372Z,6.03
2018-12-17T13:50:36.007Z,6.73
2018-12-17T13:53:10.279Z,6.63
2018-12-17T13:55:38.567Z,5.83
2018-12-17T13:58:06.809Z,6.57
2018-12-17T14:00:35.115Z,6.67
2018-12-17T14:03:03.358Z,6.33
2018-12-17T14:05:31.694Z,9.73
2018-12-17T14:07:59.939Z,8.17
2018-12-17T14:10:33.398Z,7.00
2018-12-17T14:13:01.616Z,7.77
2018-12-17T14:15:35.240Z,7.93
2018-12-17T14:18:05.427Z,7.40
2018-12-17T14:20:39.088Z,8.80
2018-12-17T14:23:07.551Z,9.23
2018-12-17T14:25:35.789Z,8.17
2018-12-17T14:28:04.035Z,6.00
2018-12-17T14:30:32.285Z,6.33
2018-12-17T14:33:00.572Z,6.30
2018-12-17T14:35:28.884Z,6.77
2018-12-17T14:38:03.532Z,5.67
2018-12-17T14:40:31.890Z,5.23
2018-12-17T14:43:00.275Z,5.40
2018-12-17T14:45:28.639Z,5.37
2018-12-17T14:47:56.872Z,5.97
2018-12-17T14:50:25.215Z,5.43
2018-12-17T14:52:53.448Z,6.03
2018-12-17T14:55:21.662Z,5.57
2018-12-17T14:57:49.941Z,4.30
2018-12-17T15:00:18.171Z,5.33
2018-12-17T15:02:46.629Z,4.40
2018-12-17T15:05:15.079Z,5.20
2018-12-17T15:07:43.591Z,5.07
2018-12-17T15:10:11.887Z,4.57
2018-12-17T15:12:40.212Z,5.20
2018-12-17T15:15:09.959Z,5.13
2018-12-17T15:17:38.399Z,6.10
2018-12-17T15:20:07.553Z,4.70
2018-12-17T15:22:35.890Z,5.37
2018-12-17T15:25:04.845Z,5.33
2018-12-17T15:27:33.165Z,5.07
2018-12-17T15:30:01.706Z,5.10
2018-12-17T15:32:29.956Z,5.23
2018-12-17T15:34:58.239Z,5.03
2018-12-17T15:37:26.514Z,5.30
2018-12-17T15:39:54.820Z,5.13
2018-12-17T15:42:23.216Z,5.53
2018-12-17T15:44:51.435Z,5.40
2018-12-17T15:47:19.874Z,4.90
2018-12-17T15:49:48.487Z,5.50
2018-12-17T15:52:16.676Z,5.30
2018-12-17T15:54:45.454Z,4.90
2018-12-17T15:57:13.711Z,6.00
2018-12-17T15:59:41.928Z,5.20
2018-12-17T16:02:10.556Z,5.50
2018-12-17T16:04:38.919Z,5.00
2018-12-17T16:07:07.307Z,4.60
2018-12-17T16:09:35.963Z,5.27
2018-12-17T16:12:04.486Z,5.83
2018-12-17T16:14:32.710Z,4.90
2018-12-17T16:17:01.025Z,5.63
2018-12-17T16:19:29.279Z,5.07
2018-12-17T16:21:57.573Z,5.00
2018-12-17T16:24:25.799Z,5.40
2018-12-17T16:26:54.020Z,5.17
2018-12-17T16:29:22.224Z,4.83
2018-12-17T16:31:57.139Z,5.57
2018-12-17T16:34:20.990Z,6.30
2018-12-17T16:36:49.805Z,5.10
2018-12-17T16:39:19.004Z,4.80
2018-12-17T16:41:47.516Z,6.40
2018-12-17T16:44:15.719Z,6.37
2018-12-17T16:46:44.274Z,5.70
2018-12-17T16:49:12.782Z,5.17
2018-12-17T16:51:40.999Z,5.00
2018-12-17T16:54:09.615Z,5.20
2018-12-17T16:56:38.099Z,5.57
2018-12-17T16:59:06.410Z,5.17
2018-12-17T17:01:34.671Z,5.03
2018-12-17T17:04:02.891Z,5.10
2018-12-17T17:06:31.107Z,5.00
2018-12-17T17:08:59.552Z,5.53
2018-12-17T17:11:27.928Z,5.00
2018-12-17T17:13:56.447Z,4.60
2018-12-17T17:16:24.987Z,4.50
2018-12-17T17:18:53.221Z,5.00
2018-12-17T17:21:21.442Z,5.20
2018-12-17T17:23:49.655Z,4.40
2018-12-17T17:26:18.030Z,5.90
2018-12-17T17:28:46.246Z,5.80
2018-12-17T17:31:14.490Z,5.63
2018-12-17T17:33:42.810Z,5.53
2018-12-17T17:36:11.043Z,5.50
2018-12-17T17:38:39.334Z,5.73
2018-12-17T17:41:07.581Z,6.33
2018-12-17T17:43:36.067Z,5.80
2018-12-17T17:46:04.395Z,5.30
2018-12-17T17:48:32.695Z,5.43
2018-12-17T17:51:00.914Z,4.90
2018-12-17T17:53:29.123Z,4.90
2018-12-17T17:55:57.513Z,5.90
2018-12-17T17:58:26.238Z,5.30
2018-12-17T18:00:54.721Z,4.90
2018-12-17T18:03:22.971Z,5.70
2018-12-17T18:05:51.217Z,6.33
2018-12-17T18:08:19.553Z,5.67
2018-12-17T18:10:47.731Z,5.23
2018-12-17T18:13:15.928Z,6.30
2018-12-17T18:15:44.133Z,6.97
2018-12-17T18:18:12.358Z,5.77
2018-12-17T18:20:41.535Z,6.17
2018-12-17T18:23:09.992Z,8.23
2018-12-17T18:25:38.235Z,6.53
2018-12-17T18:28:06.448Z,6.33
2018-12-17T18:30:34.756Z,6.80
2018-12-17T18:33:03.089Z,6.67
2018-12-17T18:35:31.303Z,6.90
2018-12-17T18:37:59.499Z,6.40
2018-12-17T18:40:27.742Z,8.00
2018-12-17T18:42:56.240Z,8.07
2018-12-17T18:45:24.415Z,8.97
2018-12-17T18:47:52.649Z,9.73
2018-12-17T18:50:21.073Z,8.60
2018-12-17T18:52:49.315Z,7.27
2018-12-17T18:55:17.521Z,8.77
2018-12-17T18:57:45.902Z,9.77
2018-12-17T19:00:14.209Z,8.80
2018-12-17T19:02:42.624Z,10.27
2018-12-17T19:05:11.175Z,9.23
2018-12-17T19:07:39.415Z,9.50
2018-12-17T19:10:07.799Z,9.00
2018-12-17T19:12:37.093Z,9.53
2018-12-17T19:15:06.398Z,8.30
2018-12-17T19:17:34.646Z,8.67
2018-12-17T19:20:03.279Z,9.53
2018-12-17T19:22:31.488Z,9.83
2018-12-17T19:24:59.719Z,9.10
2018-12-17T19:27:28.309Z,9.77
2018-12-17T19:29:56.647Z,10.10
2018-12-17T19:32:24.856Z,10.17
2018-12-17T19:34:53.254Z,10.60
2018-12-17T19:37:21.523Z,10.63
2018-12-17T19:39:49.795Z,10.20
2018-12-17T19:42:18.007Z,10.23
2018-12-17T19:44:46.239Z,10.60
2018-12-17T19:47:14.497Z,12.00
2018-12-17T19:49:42.756Z,11.17
2018-12-17T19:52:10.965Z,13.40
2018-12-17T19:54:39.403Z,11.93
2018-12-17T19:57:07.724Z,11.57
2018-12-17T19:59:36.294Z,11.77
2018-12-17T20:02:04.674Z,10.60
2018-12-17T20:04:32.878Z,11.60
2018-12-17T20:07:01.127Z,11.50
2018-12-17T20:09:29.349Z,11.10
2018-12-17T20:11:57.570Z,11.20
2018-12-17T20:14:25.878Z,11.70
2018-12-17T20:16:54.232Z,11.10
2018-12-17T20:20:51.908Z,11.60
2018-12-17T20:23:20.199Z,12.07
2018-12-17T20:25:48.448Z,12.00
2018-12-17T20:28:16.775Z,13.00
2018-12-17T20:30:45.059Z,11.97
2018-12-17T20:33:13.368Z,11.30
2018-12-17T20:35:41.583Z,11.40
2018-12-17T20:38:09.824Z,12.80
2018-12-17T20:40:38.023Z,11.93
2018-12-17T20:43:06.249Z,12.57
2018-12-17T20:45:34.558Z,14.10
2018-12-17T20:48:02.842Z,12.93
2018-12-17T20:50:31.026Z,13.07
2018-12-17T20:52:59.347Z,11.77
2018-12-17T20:55:30.622Z,11.73
2018-12-17T20:57:58.915Z,13.53
2018-12-17T21:00:27.578Z,11.23
2018-12-17T21:03:00.246Z,12.30
2018-12-17T21:05:26.171Z,12.80
2018-12-17T21:07:54.480Z,12.50
2018-12-17T21:10:22.692Z,12.30
2018-12-17T21:12:50.963Z,13.93
2018-12-17T21:15:19.663Z,14.80
2018-12-17T21:17:47.883Z,12.53
2018-12-17T21:20:16.117Z,13.70
2018-12-17T21:22:44.315Z,12.83
2018-12-17T21:25:12.559Z,12.53
2018-12-17T21:27:40.799Z,13.07
2018-12-17T21:30:09.585Z,13.50
2018-12-17T21:32:37.866Z,13.03
2018-12-17T21:35:06.570Z,13.10
2018-12-17T21:37:34.950Z,12.23
2018-12-17T21:40:03.315Z,12.27
2018-12-17T21:42:31.556Z,13.13
2018-12-17T21:44:59.860Z,12.37
2018-12-17T21:47:28.087Z,14.37
2018-12-17T21:49:56.338Z,11.40
2018-12-17T21:52:25.553Z,13.47
2018-12-17T21:54:54.103Z,12.43
2018-12-17T21:57:22.372Z,13.10
2018-12-17T21:59:50.702Z,11.77
2018-12-17T22:02:18.963Z,11.37
2018-12-17T22:04:47.406Z,11.70
2018-12-17T22:07:15.707Z,13.63
2018-12-17T22:09:43.958Z,10.90
2018-12-17T22:12:12.259Z,12.03
2018-12-17T22:14:40.615Z,11.67
2018-12-17T22:17:08.821Z,12.03
2018-12-17T22:19:37.099Z,11.67
2018-12-17T22:22:05.471Z,12.10
2018-12-17T22:24:33.748Z,10.70
2018-12-17T22:27:02.199Z,12.73
2018-12-17T22:29:30.524Z,9.73
2018-12-17T22:31:58.722Z,11.30
2018-12-17T22:34:26.938Z,11.50
2018-12-17T22:36:55.147Z,11.53
2018-12-17T22:39:24.025Z,10.30
2018-12-17T22:41:52.274Z,10.43
2018-12-17T22:44:20.609Z,10.80
2018-12-17T22:46:48.839Z,11.63
2018-12-17T22:49:17.043Z,11.27
2018-12-17T22:51:45.243Z,10.27
2018-12-17T22:54:13.448Z,9.50
2018-12-17T22:56:41.758Z,10.30
2018-12-17T22:59:09.967Z,10.10
2018-12-17T23:01:38.467Z,9.67
2018-12-17T23:04:06.775Z,9.93
2018-12-17T23:06:35.075Z,8.70
2018-12-17T23:09:05.766Z,10.13
2018-12-17T23:11:50.518Z,10.43
2018-12-17T23:14:30.131Z,8.57
2018-12-17T23:17:09.746Z,9.17
2018-12-17T23:19:42.262Z,9.07
2018-12-17T23:22:10.877Z,8.47
2018-12-17T23:24:39.440Z,8.23
2018-12-17T23:27:08.050Z,8.67
2018-12-17T23:29:36.355Z,8.90
2018-12-17T23:32:04.781Z,8.67
2018-12-17T23:34:33.281Z,8.23
2018-12-17T23:37:01.663Z,7.63
2018-12-17T23:39:29.911Z,8.40
2018-12-17T23:41:58.227Z,7.43
2018-12-17T23:44:26.735Z,8.90
2018-12-17T23:46:55.003Z,8.73
2018-12-17T23:49:23.337Z,8.50
2018-12-17T23:51:51.549Z,7.67
2018-12-17T23:54:19.739Z,7.70
2018-12-17T23:56:48.028Z,7.70
2018-12-17T23:59:16.327Z,7.50
